Time;durP1;ratioP1;P1;durP2;ratioP2;P2;SDS_P1;SDS_P2;PMS_P1;PMS_P2;Temp;Humidity;BMP_temperature;BMP_pressure;BME280_temperature;BME280_humidity;BME280_pressure;Samples;Min_cycle;Max_cycle;Signal;HPM_P1;HPM_P2
2023/03/29 00:00:20;;;;;;;18.85;17.50;;;;;;;12.20;53.52;101538.22;4994989;28;20121;-75
2023/03/29 00:02:49;;;;;;;18.95;17.73;;;;;;;12.20;53.39;101540.94;5009627;28;20120;-70
2023/03/29 00:05:21;;;;;;;17.60;16.60;;;;;;;12.19;53.47;101541.97;5005341;28;20045;-71
2023/03/29 00:07:52;;;;;;;19.52;17.98;;;;;;;12.18;53.48;101541.16;5005174;28;20037;-73
2023/03/29 00:10:21;;;;;;;18.05;17.05;;;;;;;12.19;53.46;101545.50;5007878;28;20045;-71
2023/03/29 00:12:47;;;;;;;18.40;17.17;;;;;;;12.17;53.18;101538.69;4993998;28;20026;-71
2023/03/29 00:15:12;;;;;;;18.05;16.85;;;;;;;12.17;53.45;101533.25;5007547;28;20109;-71
2023/03/29 00:17:38;;;;;;;18.02;16.92;;;;;;;12.17;53.49;101536.81;5009007;28;20029;-80
2023/03/29 00:20:09;;;;;;;19.80;18.70;;;;;;;12.17;53.59;101533.25;5010595;28;20033;-71
2023/03/29 00:22:36;;;;;;;17.98;16.98;;;;;;;12.16;53.57;101529.72;5006226;28;20038;-72
2023/03/29 00:25:02;;;;;;;16.92;16.02;;;;;;;12.15;53.52;101529.97;5009745;28;20021;-73
2023/03/29 00:27:28;;;;;;;17.35;16.38;;;;;;;12.13;53.50;101522.91;5002287;28;20068;-72
2023/03/29 00:29:55;;;;;;;19.45;18.25;;;;;;;12.14;53.43;101523.72;4999254;28;20043;-71
2023/03/29 00:32:21;;;;;;;18.08;17.08;;;;;;;12.14;53.49;101526.44;4993107;28;20034;-71
2023/03/29 00:34:49;;;;;;;18.63;17.50;;;;;;;12.13;53.33;101519.38;4994326;28;20041;-71
2023/03/29 00:37:17;;;;;;;17.42;16.45;;;;;;;12.13;53.66;101508.53;5006867;28;20405;-72
2023/03/29 00:39:44;;;;;;;17.70;16.65;;;;;;;12.12;53.45;101504.19;4999111;28;20050;-71
2023/03/29 00:42:12;;;;;;;18.50;17.50;;;;;;;12.12;53.61;101502.31;5007155;28;20522;-71
2023/03/29 00:45:05;;;;;;;16.83;15.93;;;;;;;12.09;53.48;101505.47;5001291;28;20030;-71
2023/03/29 00:47:45;;;;;;;16.70;15.80;;;;;;;12.08;53.15;101495.69;4999511;28;20112;-71
2023/03/29 00:50:24;;;;;;;16.67;15.77;;;;;;;12.07;53.43;101490.50;5011480;28;20474;-71
2023/03/29 00:53:00;;;;;;;20.67;18.20;;;;;;;12.06;53.46;101492.38;5009630;28;20048;-72
2023/03/29 00:55:28;;;;;;;18.20;16.95;;;;;;;12.05;53.53;101490.75;5009373;28;20473;-72
2023/03/29 00:57:55;;;;;;;18.83;17.67;;;;;;;12.07;53.56;101490.50;5002377;28;20466;-71
2023/03/29 01:00:26;;;;;;;17.67;16.58;;;;;;;12.07;53.52;101491.34;4992203;28;20125;-71
2023/03/29 01:02:58;;;;;;;18.83;17.63;;;;;;;12.07;53.45;101485.09;4995375;28;20073;-71
2023/03/29 01:05:31;;;;;;;18.13;17.13;;;;;;;12.06;53.37;101486.97;4992978;28;20421;-71
2023/03/29 01:08:04;;;;;;;19.40;18.13;;;;;;;12.07;53.48;101477.81;5000538;28;20040;-72
2023/03/29 01:10:32;;;;;;;17.13;16.20;;;;;;;12.06;53.48;101481.56;4989629;28;20064;-72
2023/03/29 01:13:05;;;;;;;18.58;17.33;;;;;;;12.07;53.25;101487.78;4997145;28;20061;-71
2023/03/29 01:15:31;;;;;;;17.35;16.40;;;;;;;12.06;53.49;101481.56;5005174;28;20074;-71
2023/03/29 01:18:00;;;;;;;18.52;17.35;;;;;;;12.06;53.41;101478.84;4992283;28;20520;-70
2023/03/29 01:20:44;;;;;;;17.98;16.92;;;;;;;12.06;53.41;101475.31;5001421;28;20030;-72
2023/03/29 01:23:20;;;;;;;18.48;17.48;;;;;;;12.05;53.45;101484.53;5009177;28;20440;-71
2023/03/29 01:25:53;;;;;;;18.20;17.05;;;;;;;12.04;53.42;101464.72;4996448;28;20038;-72
2023/03/29 01:28:28;;;;;;;17.42;16.42;;;;;;;12.05;53.37;101476.41;4993251;28;20065;-73
2023/03/29 01:31:02;;;;;;;19.08;17.98;;;;;;;12.05;53.59;101463.69;5001312;28;20397;-71
2023/03/29 01:33:36;;;;;;;18.42;17.42;;;;;;;12.04;53.44;101462.00;5005558;28;20038;-71
2023/03/29 01:36:02;;;;;;;18.80;17.65;;;;;;;12.03;53.55;101446.00;5003835;28;20108;-75
2023/03/29 01:38:38;;;;;;;18.55;17.48;;;;;;;12.04;53.43;101459.31;4999488;28;20026;-72
2023/03/29 01:41:04;;;;;;;19.52;18.25;;;;;;;12.04;53.47;101448.47;5000154;28;20053;-71
2023/03/29 01:43:49;;;;;;;17.00;16.00;;;;;;;12.04;53.62;101453.06;5009504;28;20081;-71
2023/03/29 01:46:30;;;;;;;18.77;17.27;;;;;;;12.01;53.49;101448.94;4997842;28;20041;-70
2023/03/29 01:49:02;;;;;;;19.58;18.27;;;;;;;12.01;53.45;101431.88;4994746;28;20502;-72
2023/03/29 01:51:33;;;;;;;17.73;16.75;;;;;;;12.01;53.54;101427.28;5006333;28;20105;-71
2023/03/29 01:54:20;;;;;;;18.75;17.52;;;;;;;11.99;53.51;101426.69;5006919;28;20034;-74
2023/03/29 01:56:48;;;;;;;17.55;16.52;;;;;;;11.98;53.47;101419.63;5009126;28;20093;-79
2023/03/29 01:59:17;;;;;;;17.10;16.20;;;;;;;11.98;53.50;101419.63;5006363;28;20580;-72
2023/03/29 02:01:57;;;;;;;16.20;15.27;;;;;;;11.98;53.81;101416.13;5009936;28;20026;-70
2023/03/29 02:04:37;;;;;;;18.30;17.20;;;;;;;11.99;53.21;101415.03;5011491;28;20040;-71
2023/03/29 02:07:07;;;;;;;18.35;17.17;;;;;;;11.99;53.55;101423.97;5010538;28;20034;-71
2023/03/29 02:09:36;;;;;;;18.00;17.00;;;;;;;11.99;53.47;101421.28;4999873;28;20381;-71
2023/03/29 02:12:03;;;;;;;17.60;16.48;;;;;;;11.99;53.54;101412.34;5006752;28;20466;-70
2023/03/29 02:14:29;;;;;;;16.20;15.30;;;;;;;11.99;53.42;101415.03;5008968;28;20030;-73
2023/03/29 02:16:54;;;;;;;18.40;17.15;;;;;;;11.99;53.42;101415.84;5007096;28;20425;-71
2023/03/29 02:19:23;;;;;;;18.00;17.00;;;;;;;12.00;53.48;101406.69;5006669;28;20041;-71
2023/03/29 02:22:00;;;;;;;17.60;16.50;;;;;;;11.98;53.57;101400.69;5005474;28;20029;-79
2023/03/29 02:24:31;;;;;;;17.15;16.20;;;;;;;11.99;53.54;101409.63;5002151;28;20030;-71
2023/03/29 02:26:56;;;;;;;18.33;17.20;;;;;;;11.99;53.60;101404.22;5009785;28;20177;-71
2023/03/29 02:29:22;;;;;;;17.92;16.92;;;;;;;11.98;53.26;101403.41;4995703;28;20121;-71
2023/03/29 02:31:53;;;;;;;18.35;17.35;;;;;;;11.99;53.55;101393.38;5002362;28;20068;-81
2023/03/29 02:34:37;;;;;;;19.00;17.98;;;;;;;11.97;53.60;101393.63;5010505;28;20068;-71
2023/03/29 02:37:09;;;;;;;17.42;16.33;;;;;;;11.97;53.52;101392.78;5007100;28;20045;-70
2023/03/29 02:39:37;;;;;;;17.98;16.80;;;;;;;11.98;53.48;101386.34;5011099;28;20038;-71
2023/03/29 02:42:04;;;;;;;17.75;16.67;;;;;;;11.97;53.63;101387.38;5002071;28;20087;-70
2023/03/29 02:44:35;;;;;;;15.93;15.02;;;;;;;11.97;53.46;101380.09;5007922;28;20501;-72
2023/03/29 02:47:14;;;;;;;18.88;17.67;;;;;;;11.96;53.51;101377.63;5005965;28;20381;-72
2023/03/29 02:49:39;;;;;;;16.60;15.70;;;;;;;11.97;53.64;101379.25;4997132;28;20116;-71
2023/03/29 02:52:13;;;;;;;18.90;17.65;;;;;;;11.96;53.57;101369.50;5007943;28;20418;-72
2023/03/29 02:54:42;;;;;;;16.95;15.95;;;;;;;11.95;53.52;101371.38;5007926;28;20073;-71
2023/03/29 02:57:07;;;;;;;;;;;;;;;11.91;53.65;101368.31;5008474;28;20030;-70
2023/03/29 02:59:33;;;;;;;17.60;16.60;;;;;;;11.91;53.57;101367.50;5000333;28;20417;-73
2023/03/29 03:01:59;;;;;;;18.02;16.73;;;;;;;11.90;53.78;101374.78;4999920;28;20478;-70
2023/03/29 03:04:25;;;;;;;17.75;16.75;;;;;;;11.91;53.62;101370.19;5008385;28;20049;-71
2023/03/29 03:06:50;;;;;;;17.83;16.83;;;;;;;11.91;53.59;101378.31;5002319;28;20484;-79
2023/03/29 03:09:17;;;;;;;16.45;15.45;;;;;;;11.94;53.60;101374.31;5000316;28;20038;-69
2023/03/29 03:11:45;;;;;;;17.17;16.25;;;;;;;11.93;53.68;101367.25;5002587;28;20034;-68
2023/03/29 03:14:11;;;;;;;16.95;16.05;;;;;;;11.91;53.58;101371.00;5008206;28;20037;-72
2023/03/29 03:16:36;;;;;;;16.23;15.23;;;;;;;11.93;53.66;101367.25;5011763;28;20041;-74
2023/03/29 03:19:02;;;;;;;18.40;17.30;;;;;;;11.91;53.58;101364.78;5009690;28;20042;-71
2023/03/29 03:21:28;;;;;;;17.42;16.42;;;;;;;11.91;53.65;101354.78;5001789;28;20108;-69
2023/03/29 03:23:54;;;;;;;17.08;16.05;;;;;;;11.91;53.50;101354.78;5013210;28;20038;-76
2023/03/29 03:26:20;;;;;;;18.65;17.65;;;;;;;11.92;53.67;101350.22;5005223;28;20030;-70
2023/03/29 03:28:45;;;;;;;16.85;15.95;;;;;;;11.91;53.62;101349.34;5013319;28;20040;-71
2023/03/29 03:31:14;;;;;;;18.38;17.27;;;;;;;11.91;53.70;101349.34;5000262;28;20030;-70
2023/03/29 03:33:40;;;;;;;17.15;15.90;;;;;;;11.92;53.63;101350.22;5007542;28;20088;-71
2023/03/29 03:36:08;;;;;;;17.75;16.63;;;;;;;11.93;53.56;101345.59;5002606;28;20083;-71
2023/03/29 03:38:35;;;;;;;18.02;16.60;;;;;;;11.91;53.58;101348.53;5001885;28;20394;-71
2023/03/29 03:41:00;;;;;;;17.30;16.30;;;;;;;11.93;53.71;101357.25;5004610;28;20117;-72
2023/03/29 03:43:27;;;;;;;16.73;15.82;;;;;;;11.93;53.74;101346.44;5006686;28;20201;-75
2023/03/29 03:45:56;;;;;;;17.13;15.98;;;;;;;11.92;53.69;101352.91;5000684;28;20034;-72
2023/03/29 03:48:22;;;;;;;17.83;16.70;;;;;;;11.92;53.70;101347.50;5007683;28;20478;-73
2023/03/29 03:50:53;;;;;;;17.27;16.15;;;;;;;11.93;53.49;101349.13;4986433;28;20474;-72
2023/03/29 03:53:20;;;;;;;17.45;16.48;;;;;;;11.92;53.64;101350.22;5011827;28;20025;-71
2023/03/29 03:55:50;;;;;;;17.23;16.15;;;;;;;11.91;53.72;101348.53;5001391;28;20033;-72
2023/03/29 03:58:16;;;;;;;18.38;17.23;;;;;;;11.92;53.64;101344.78;5006356;28;20565;-72
2023/03/29 04:00:41;;;;;;;17.23;16.00;;;;;;;11.91;53.86;101343.94;5003079;28;20058;-72
2023/03/29 04:03:07;;;;;;;18.00;16.88;;;;;;;11.91;53.71;101349.34;5000745;28;20034;-72
2023/03/29 04:05:37;;;;;;;17.40;16.30;;;;;;;11.92;53.69;101350.22;5012886;28;20030;-71
2023/03/29 04:08:04;;;;;;;18.88;17.52;;;;;;;11.92;53.84;101347.50;5003274;28;20436;-71
2023/03/29 04:10:31;;;;;;;17.83;16.83;;;;;;;11.93;53.72;101348.31;4995638;28;20088;-73
2023/03/29 04:13:01;;;;;;;17.65;16.40;;;;;;;11.91;53.57;101343.13;5011545;28;20033;-76
2023/03/29 04:15:27;;;;;;;16.23;15.32;;;;;;;11.91;53.81;101343.13;4998709;28;20087;-70
2023/03/29 04:17:54;;;;;;;18.80;17.70;;;;;;;11.91;53.64;101343.13;5011680;28;20042;-73
2023/03/29 04:20:20;;;;;;;16.95;15.95;;;;;;;11.92;53.63;101339.38;4999692;28;20500;-71
2023/03/29 04:22:46;;;;;;;16.73;15.52;;;;;;;11.91;53.64;101335.81;5008086;28;20041;-71
2023/03/29 04:25:11;;;;;;;18.80;17.70;;;;;;;11.91;53.66;101335.00;5008165;28;20049;-73
2023/03/29 04:27:36;;;;;;;18.08;17.08;;;;;;;11.91;53.75;101332.28;5002047;28;20038;-71
2023/03/29 04:30:03;;;;;;;18.50;17.30;;;;;;;11.91;53.71;101329.59;5004302;28;20040;-76
2023/03/29 04:32:29;;;;;;;16.77;15.52;;;;;;;11.92;53.72;101320.44;5010768;28;20037;-71
2023/03/29 04:34:54;;;;;;;18.38;17.27;;;;;;;11.90;53.79;101317.13;5007819;28;20093;-71
2023/03/29 04:37:21;;;;;;;18.70;17.60;;;;;;;11.90;53.72;101317.94;5011851;28;20062;-72
2023/03/29 04:39:48;;;;;;;16.40;15.50;;;;;;;11.90;53.73;101322.53;5011669;28;20022;-72
2023/03/29 04:42:13;;;;;;;18.38;17.23;;;;;;;11.88;53.76;101314.66;5010395;28;20040;-71
2023/03/29 04:44:41;;;;;;;16.83;15.85;;;;;;;11.88;53.75;101314.66;5011533;28;20456;-71
2023/03/29 04:47:06;;;;;;;17.73;16.70;;;;;;;11.89;53.74;101312.75;5003661;28;20470;-74
2023/03/29 04:49:32;;;;;;;17.30;16.40;;;;;;;11.89;53.62;101310.91;5003761;28;20038;-71
2023/03/29 04:51:59;;;;;;;16.90;16.00;;;;;;;11.89;53.72;101307.34;5010774;28;20073;-71
2023/03/29 04:54:25;;;;;;;17.58;16.50;;;;;;;11.89;53.72;101307.34;5008334;28;20037;-71
2023/03/29 04:56:51;;;;;;;17.85;16.83;;;;;;;11.89;53.76;101308.19;5009825;28;20377;-74
2023/03/29 04:59:16;;;;;;;18.70;17.35;;;;;;;11.89;53.83;101313.59;5001377;28;20070;-72
2023/03/29 05:01:42;;;;;;;18.85;17.52;;;;;;;11.88;53.80;101309.22;5004579;28;20069;-71
2023/03/29 05:04:08;;;;;;;20.33;19.05;;;;;;;11.88;53.63;101320.06;4997892;28;20042;-71
2023/03/29 05:06:34;;;;;;;16.83;15.93;;;;;;;11.90;53.87;101314.41;5004820;28;20034;-74
2023/03/29 05:09:00;;;;;;;18.80;17.70;;;;;;;11.88;53.76;101314.66;4985082;28;20038;-72
2023/03/29 05:11:26;;;;;;;17.65;16.65;;;;;;;11.89;53.92;101308.19;5000728;28;20057;-71
2023/03/29 05:13:51;;;;;;;17.15;16.20;;;;;;;11.88;53.72;101306.53;5007420;28;20122;-72
2023/03/29 05:16:18;;;;;;;17.80;16.70;;;;;;;11.89;53.87;101310.06;5001304;28;20038;-74
2023/03/29 05:18:43;;;;;;;17.73;16.73;;;;;;;11.89;53.71;101312.75;4999221;28;20118;-71
2023/03/29 05:21:08;;;;;;;17.27;16.30;;;;;;;11.88;53.86;101311.94;5002116;28;20129;-74
2023/03/29 05:23:34;;;;;;;16.55;15.57;;;;;;;11.88;53.58;101324.66;5005646;28;20462;-71
2023/03/29 05:25:59;;;;;;;17.35;16.25;;;;;;;11.88;53.76;101314.66;4994719;28;20034;-71
2023/03/29 05:28:26;;;;;;;17.27;16.30;;;;;;;11.89;53.81;101323.59;5010088;28;20030;-72
2023/03/29 05:30:59;;;;;;;18.45;16.90;;;;;;;11.88;53.82;101319.25;4999845;28;20096;-73
2023/03/29 05:33:25;;;;;;;17.08;16.08;;;;;;;11.88;53.80;101321.94;5005344;28;20029;-71
2023/03/29 05:35:58;;;;;;;16.40;15.50;;;;;;;11.87;53.91;101325.72;5005619;28;20034;-70
2023/03/29 05:38:24;;;;;;;16.83;15.82;;;;;;;11.88;53.87;101327.38;5006221;28;20084;-73
2023/03/29 05:40:50;;;;;;;16.05;15.15;;;;;;;11.88;53.81;101332.78;5011373;28;20038;-73
2023/03/29 05:43:15;;;;;;;18.17;17.00;;;;;;;11.87;53.82;101325.72;5009300;28;20588;-75
2023/03/29 05:45:41;;;;;;;18.50;17.45;;;;;;;11.88;53.87;101325.47;4993949;28;20037;-76
2023/03/29 05:48:06;;;;;;;18.10;16.38;;;;;;;11.87;53.83;101328.44;5010339;28;20030;-79
2023/03/29 05:50:31;;;;;;;18.25;17.20;;;;;;;11.89;53.73;101326.28;4999076;28;20424;-72
2023/03/29 05:52:57;;;;;;;18.10;17.10;;;;;;;11.88;53.59;101333.59;4995185;28;20042;-72
2023/03/29 05:55:22;;;;;;;18.42;17.23;;;;;;;11.89;53.75;101329.00;5008814;28;20489;-74
2023/03/29 05:57:48;;;;;;;18.73;17.20;;;;;;;11.89;53.80;101329.00;4993257;28;20041;-77
2023/03/29 06:00:22;;;;;;;20.05;18.88;;;;;;;11.89;53.74;101332.56;5004129;28;20034;-71
2023/03/29 06:02:51;;;;;;;18.63;17.35;;;;;;;11.87;53.76;101329.25;5002583;28;20080;-71
2023/03/29 06:05:18;;;;;;;19.45;18.25;;;;;;;11.87;53.75;101339.25;5008496;28;20034;-73
2023/03/29 06:07:44;;;;;;;17.73;16.58;;;;;;;11.86;53.81;101330.28;4998112;28;20045;-71
2023/03/29 06:10:11;;;;;;;18.58;17.52;;;;;;;11.87;53.74;101336.56;4997425;28;20113;-82
2023/03/29 06:12:36;;;;;;;17.50;16.50;;;;;;;11.87;53.79;101333.84;5007183;28;20038;-70
2023/03/29 06:15:03;;;;;;;18.25;17.15;;;;;;;11.89;53.65;101331.69;5014023;28;20046;-73
2023/03/29 06:17:30;;;;;;;19.50;18.25;;;;;;;11.88;53.89;101340.91;5014006;28;20564;-71
2023/03/29 06:19:56;;;;;;;16.45;15.55;;;;;;;11.88;53.81;101330.06;5006697;28;20030;-73
2023/03/29 06:22:22;;;;;;;18.77;17.58;;;;;;;11.89;53.82;101334.41;5005271;28;20474;-72
2023/03/29 06:24:47;;;;;;;17.42;16.33;;;;;;;11.89;53.85;101329.00;5000895;28;20050;-71
2023/03/29 06:27:13;;;;;;;19.70;18.40;;;;;;;11.89;53.74;101327.13;5014358;28;20077;-72
2023/03/29 06:29:39;;;;;;;19.83;18.63;;;;;;;11.88;53.82;101320.06;5014368;28;20440;-72
2023/03/29 06:32:04;;;;;;;18.30;17.20;;;;;;;11.89;53.83;101327.13;5011155;28;20027;-71
2023/03/29 06:34:30;;;;;;;18.52;17.33;;;;;;;11.91;53.76;101318.75;5010498;28;20045;-74
2023/03/29 06:36:56;;;;;;;17.88;16.83;;;;;;;11.90;53.57;101317.94;5012700;28;20080;-73
2023/03/29 06:39:22;;;;;;;19.20;17.90;;;;;;;11.90;53.92;101320.66;5007547;28;20037;-74
2023/03/29 06:41:47;;;;;;;18.42;17.35;;;;;;;11.91;53.66;101329.59;5007088;28;20026;-71
2023/03/29 06:44:16;;;;;;;20.05;18.70;;;;;;;11.90;53.86;101317.13;5005765;28;20033;-71
2023/03/29 06:46:41;;;;;;;18.25;17.13;;;;;;;11.90;53.76;101322.53;5009627;28;20041;-73
2023/03/29 06:49:07;;;;;;;19.30;18.00;;;;;;;11.91;53.77;101329.59;5007810;28;20042;-72
2023/03/29 06:51:32;;;;;;;19.45;18.25;;;;;;;11.90;53.80;101331.47;5010107;28;20104;-72
2023/03/29 06:53:57;;;;;;;19.17;17.80;;;;;;;11.91;53.81;101337.72;5009763;28;20121;-73
2023/03/29 06:56:23;;;;;;;20.45;19.15;;;;;;;11.91;53.80;101333.13;5008652;28;20152;-73
2023/03/29 06:58:48;;;;;;;18.15;16.95;;;;;;;11.92;53.76;101336.66;4989406;28;20042;-78
2023/03/29 07:01:14;;;;;;;18.52;17.38;;;;;;;11.91;53.70;101330.41;5009172;28;20359;-70
2023/03/29 07:03:40;;;;;;;19.02;17.77;;;;;;;11.93;53.67;101340.19;5010270;28;20155;-76
2023/03/29 07:06:08;;;;;;;20.80;18.95;;;;;;;11.93;53.78;101335.59;5009297;28;20041;-71
2023/03/29 07:08:42;;;;;;;18.90;17.45;;;;;;;11.94;53.76;101347.25;5005589;28;20121;-71
2023/03/29 07:11:13;;;;;;;20.58;19.08;;;;;;;11.94;53.88;101339.13;5008862;28;20494;-72
2023/03/29 07:13:42;;;;;;;18.42;17.23;;;;;;;11.94;53.75;101342.66;5005458;28;20072;-71
2023/03/29 07:16:11;;;;;;;19.50;18.10;;;;;;;11.93;53.74;101338.31;5006130;28;20038;-74
2023/03/29 07:18:41;;;;;;;18.42;17.13;;;;;;;11.95;54.01;101348.91;5008402;28;20042;-71
2023/03/29 07:21:07;;;;;;;18.98;17.67;;;;;;;11.96;53.92;101350.53;5008830;28;20036;-71
2023/03/29 07:23:33;;;;;;;21.10;19.38;;;;;;;11.96;53.73;101364.91;5008645;28;20053;-73
2023/03/29 07:25:59;;;;;;;18.65;17.42;;;;;;;11.97;53.80;101363.00;5008194;28;20073;-71
2023/03/29 07:28:24;;;;;;;22.38;20.23;;;;;;;11.97;53.79;101365.72;5003566;28;20045;-75
2023/03/29 07:30:50;;;;;;;19.42;18.00;;;;;;;11.97;53.88;101366.56;5004746;28;20478;-72
2023/03/29 07:33:16;;;;;;;19.67;18.48;;;;;;;11.98;53.94;101370.91;5004549;28;20360;-81
2023/03/29 07:35:42;;;;;;;19.50;18.20;;;;;;;11.99;53.88;101364.41;5008192;28;20180;-71
2023/03/29 07:38:08;;;;;;;19.95;18.55;;;;;;;11.99;53.78;101364.41;5007259;28;20057;-71
2023/03/29 07:40:34;;;;;;;20.65;18.85;;;;;;;11.99;53.88;101367.13;5007047;28;20034;-72
2023/03/29 07:43:01;;;;;;;22.40;20.50;;;;;;;12.01;53.88;101366.91;5005882;28;20044;-76
2023/03/29 07:45:28;;;;;;;21.50;19.77;;;;;;;12.01;54.00;101367.72;5005627;28;20367;-73
2023/03/29 07:47:58;;;;;;;22.05;20.25;;;;;;;12.02;53.64;101368.53;5007718;28;20156;-75
2023/03/29 07:50:24;;;;;;;21.52;19.95;;;;;;;12.03;54.07;101364.78;5005652;28;20029;-79
2023/03/29 07:52:50;;;;;;;19.80;18.17;;;;;;;12.03;53.85;101372.91;5008711;28;20416;-74
2023/03/29 07:55:15;;;;;;;18.77;17.27;;;;;;;12.04;53.89;101378.06;4987002;28;20118;-71
2023/03/29 07:57:42;;;;;;;19.27;17.98;;;;;;;12.04;53.95;101367.25;5007596;28;20048;-71
2023/03/29 08:00:15;;;;;;;21.08;19.67;;;;;;;12.04;53.96;101364.53;5005408;28;20034;-74
2023/03/29 08:02:45;;;;;;;19.08;17.38;;;;;;;12.06;53.98;101361.59;5007592;28;20124;-71
2023/03/29 08:05:12;;;;;;;19.80;18.40;;;;;;;12.05;53.94;101360.78;5005711;28;20116;-70
2023/03/29 08:07:39;;;;;;;20.23;18.77;;;;;;;12.08;53.96;101359.47;5006522;28;20359;-75
2023/03/29 08:10:08;;;;;;;21.77;20.27;;;;;;;12.08;53.94;101354.06;5008145;28;20069;-72
2023/03/29 08:12:35;;;;;;;22.20;20.35;;;;;;;12.09;53.91;101348.41;5008490;28;20052;-75
2023/03/29 08:15:00;;;;;;;18.52;17.38;;;;;;;12.09;54.09;101344.88;5007328;28;20038;-72
2023/03/29 08:17:26;;;;;;;20.85;19.25;;;;;;;12.10;54.12;101358.19;5009034;28;20045;-70
2023/03/29 08:19:51;;;;;;;19.02;17.77;;;;;;;12.11;54.01;101351.69;5008876;28;20034;-72
2023/03/29 08:22:16;;;;;;;20.58;19.08;;;;;;;12.12;53.93;101344.41;5007240;28;20470;-78
2023/03/29 08:24:42;;;;;;;19.30;18.00;;;;;;;12.12;53.98;101342.53;5007614;28;20044;-72
2023/03/29 08:27:07;;;;;;;19.42;18.08;;;;;;;12.12;54.12;101349.84;5008616;28;20040;-75
2023/03/29 08:29:33;;;;;;;20.23;18.70;;;;;;;12.13;54.04;101349.56;5005707;28;20041;-71
2023/03/29 08:31:58;;;;;;;20.50;18.80;;;;;;;12.13;54.12;101346.88;5006723;28;20541;-72
2023/03/29 08:34:23;;;;;;;20.65;19.17;;;;;;;12.14;54.05;101355.81;5000315;28;20034;-75
2023/03/29 08:36:49;;;;;;;18.35;17.15;;;;;;;12.15;54.12;101353.94;5008048;28;20578;-73
2023/03/29 08:39:14;;;;;;;19.00;17.50;;;;;;;12.15;54.05;101359.38;5005161;28;20038;-80
2023/03/29 08:42:00;;;;;;;18.70;17.42;;;;;;;12.15;54.25;101353.94;5007230;28;20420;-75
2023/03/29 08:44:41;;;;;;;19.98;18.63;;;;;;;12.15;54.54;101356.66;5004622;28;20104;-75
2023/03/29 08:47:22;;;;;;;19.20;17.65;;;;;;;12.13;54.59;101349.56;5008205;28;20080;-72
2023/03/29 08:49:54;;;;;;;19.67;18.23;;;;;;;12.16;54.48;101347.47;5003023;28;20042;-72
2023/03/29 08:52:32;;;;;;;17.42;16.42;;;;;;;12.16;54.51;101355.59;5008624;28;20030;-76
2023/03/29 08:54:59;;;;;;;20.27;18.77;;;;;;;12.19;54.35;101347.78;5005718;28;20030;-71
2023/03/29 08:57:30;;;;;;;19.60;18.20;;;;;;;12.19;54.47;101344.25;5006335;28;20037;-71
2023/03/29 09:00:00;;;;;;;20.88;19.52;;;;;;;12.21;54.49;101342.16;5007993;28;20551;-71
2023/03/29 09:02:30;;;;;;;20.08;18.60;;;;;;;12.23;54.70;101345.44;5004906;28;20099;-75
2023/03/29 09:05:05;;;;;;;21.48;19.85;;;;;;;12.24;54.73;101347.06;5004861;28;20064;-73
2023/03/29 09:07:31;;;;;;;19.48;18.08;;;;;;;12.26;54.76;101345.78;5004652;28;20487;-77
2023/03/29 09:09:57;;;;;;;18.88;17.73;;;;;;;12.27;54.71;101354.72;5005082;28;20116;-75
2023/03/29 09:12:33;;;;;;;21.27;19.63;;;;;;;12.29;54.72;101347.19;4989367;28;20038;-73
2023/03/29 09:15:18;;;;;;;20.35;19.05;;;;;;;12.31;54.78;101348.59;5007321;28;20545;-72
2023/03/29 09:18:16;;;;;;;21.63;20.02;;;;;;;12.30;54.91;101346.13;4998371;28;20042;-73
2023/03/29 09:21:13;;;;;;;20.52;19.02;;;;;;;12.30;54.99;101340.72;5005335;28;20486;-71
2023/03/29 09:24:09;;;;;;;19.92;18.55;;;;;;;12.32;55.04;101338.56;5006399;28;20041;-71
2023/03/29 09:26:40;;;;;;;20.90;19.45;;;;;;;12.33;55.14;101351.06;5002383;28;20038;-70
2023/03/29 09:29:41;;;;;;;20.67;18.77;;;;;;;12.34;55.03;101350.81;5004490;28;20033;-72
2023/03/29 09:32:19;;;;;;;19.45;18.23;;;;;;;12.36;55.08;101353.28;5004375;28;20033;-75
2023/03/29 09:34:52;;;;;;;18.23;16.60;;;;;;;12.40;55.00;101348.22;5004473;28;20034;-73
2023/03/29 09:37:46;;;;;;;19.02;17.83;;;;;;;12.41;55.29;101350.69;5005481;28;20049;-73
2023/03/29 09:40:26;;;;;;;21.23;19.60;;;;;;;12.44;55.17;101346.69;5005228;28;20073;-73
2023/03/29 09:42:54;;;;;;;21.10;19.88;;;;;;;12.46;55.30;101350.78;5004563;28;20484;-74
2023/03/29 09:45:20;;;;;;;19.65;18.45;;;;;;;12.48;55.25;101345.97;5004810;28;20034;-71
2023/03/29 09:47:48;;;;;;;23.52;21.55;;;;;;;12.50;55.34;101356.56;5009089;28;20092;-75
2023/03/29 09:50:21;;;;;;;19.13;17.95;;;;;;;12.54;55.50;101358.53;5009644;28;20033;-74
2023/03/29 09:52:48;;;;;;;21.00;19.45;;;;;;;12.56;55.67;101351.00;5007736;28;20296;-71
2023/03/29 09:55:16;;;;;;;21.20;19.70;;;;;;;12.60;55.47;101351.34;5007359;28;20026;-73
2023/03/29 09:57:42;;;;;;;19.23;18.02;;;;;;;12.60;55.85;101354.06;5007942;28;20580;-73
2023/03/29 10:00:10;;;;;;;20.50;19.33;;;;;;;12.63;55.81;101364.41;5005148;28;20041;-75
2023/03/29 10:02:36;;;;;;;21.30;19.73;;;;;;;12.66;55.79;101354.97;5009153;28;20026;-72
2023/03/29 10:05:06;;;;;;;21.60;20.20;;;;;;;12.69;55.75;101349.06;4990461;28;20030;-72
2023/03/29 10:07:45;;;;;;;19.45;18.30;;;;;;;12.69;55.80;101351.78;5006330;28;20038;-72
2023/03/29 10:10:21;;;;;;;20.23;18.83;;;;;;;12.72;55.73;101345.88;5007296;28;20037;-74
2023/03/29 10:12:53;;;;;;;21.30;19.80;;;;;;;12.73;55.94;101345.63;5005313;28;20030;-74
2023/03/29 10:15:20;;;;;;;21.55;20.35;;;;;;;12.76;55.79;101349.75;5007875;28;20037;-72
2023/03/29 10:17:46;;;;;;;22.25;20.67;;;;;;;12.78;55.84;101342.22;5004435;28;20128;-72
2023/03/29 10:20:17;;;;;;;19.05;18.05;;;;;;;12.80;55.91;101326.53;5005470;28;20035;-72
2023/03/29 10:22:55;;;;;;;22.92;21.38;;;;;;;12.84;55.84;101333.09;5006805;28;20042;-75
2023/03/29 10:25:26;;;;;;;22.33;20.83;;;;;;;12.85;55.90;101318.47;5005261;28;20037;-72
2023/03/29 10:27:55;;;;;;;19.55;18.15;;;;;;;12.88;55.82;101323.41;5006640;28;20293;-73
2023/03/29 10:30:24;;;;;;;20.83;19.35;;;;;;;12.90;55.79;101324.00;5005219;28;20041;-71
2023/03/29 10:32:58;;;;;;;20.45;19.05;;;;;;;12.92;55.83;101318.31;5006880;28;20501;-70
2023/03/29 10:35:39;;;;;;;21.10;19.20;;;;;;;12.93;55.92;101312.66;5004527;28;20034;-72
2023/03/29 10:38:10;;;;;;;21.77;20.13;;;;;;;12.97;55.88;101305.66;5009184;28;20046;-72
2023/03/29 10:40:43;;;;;;;23.55;20.00;;;;;;;13.01;55.71;101305.19;5003760;28;20040;-71
2023/03/29 10:43:34;;;;;;;21.20;19.33;;;;;;;13.03;55.62;101308.44;5005024;28;20038;-73
2023/03/29 10:46:18;;;;;;;20.60;18.75;;;;;;;13.04;55.82;101299.28;5008561;28;20045;-72
2023/03/29 10:48:49;;;;;;;24.15;22.10;;;;;;;13.06;55.89;101292.53;5007310;28;20041;-72
2023/03/29 10:51:17;;;;;;;21.52;20.02;;;;;;;13.10;55.81;101277.41;5008435;28;20813;-72
2023/03/29 10:53:42;;;;;;;21.65;19.77;;;;;;;13.12;55.90;101272.53;5005545;28;20560;-72
2023/03/29 10:56:38;;;;;;;21.92;20.17;;;;;;;13.14;55.78;101270.41;5009270;28;20034;-76
2023/03/29 10:59:28;;;;;;;19.92;18.42;;;;;;;13.16;55.96;101262.03;4996739;28;20041;-72
2023/03/29 11:02:03;;;;;;;20.25;18.95;;;;;;;13.20;55.84;101274.03;5010461;28;20079;-75
2023/03/29 11:04:44;;;;;;;20.55;19.02;;;;;;;13.23;56.10;101268.13;5010220;28;20030;-72
2023/03/29 11:07:28;;;;;;;21.00;19.55;;;;;;;13.24;56.19;101269.75;5010673;28;20116;-71
2023/03/29 11:10:18;;;;;;;21.90;20.40;;;;;;;13.26;56.31;101262.19;5007060;28;20656;-71
2023/03/29 11:13:08;;;;;;;21.70;20.13;;;;;;;13.29;56.31;101269.06;5007331;28;20040;-72
2023/03/29 11:15:52;;;;;;;20.73;19.02;;;;;;;13.32;56.29;101265.84;5010303;28;20073;-72
2023/03/29 11:18:36;;;;;;;21.15;19.38;;;;;;;13.36;56.48;101273.25;5006648;28;20497;-73
2023/03/29 11:21:19;;;;;;;21.70;20.10;;;;;;;13.38;56.46;101276.53;5011971;28;20034;-70